sensor_id;sensor_type;location;lat;lon;timestamp;P1;durP1;ratioP1;P2;durP2;ratioP2
59828;SDS011;45708;51.848;107.620;2023-04-06T00:00:10;13.63;;;5.22;;
59828;SDS011;45708;51.848;107.620;2023-04-06T00:05:12;3.72;;;2.47;;
59828;SDS011;45708;51.848;107.620;2023-04-06T00:10:12;7.82;;;3.03;;
59828;SDS011;45708;51.848;107.620;2023-04-06T00:15:13;6.78;;;3.13;;
59828;SDS011;45708;51.848;107.620;2023-04-06T00:20:15;3.85;;;1.83;;
59828;SDS011;45708;51.848;107.620;2023-04-06T00:25:16;7.78;;;3.45;;
59828;SDS011;45708;51.848;107.620;2023-04-06T00:30:17;2.00;;;1.65;;
59828;SDS011;45708;51.848;107.620;2023-04-06T00:35:18;8.52;;;2.83;;
59828;SDS011;45708;51.848;107.620;2023-04-06T00:40:19;10.30;;;2.40;;
59828;SDS011;45708;51.848;107.620;2023-04-06T00:45:20;5.32;;;2.03;;
59828;SDS011;45708;51.848;107.620;2023-04-06T00:50:21;9.98;;;2.05;;
59828;SDS011;45708;51.848;107.620;2023-04-06T00:55:22;6.13;;;2.17;;
59828;SDS011;45708;51.848;107.620;2023-04-06T01:00:23;2.47;;;2.10;;
59828;SDS011;45708;51.848;107.620;2023-04-06T01:05:24;2.78;;;1.65;;
59828;SDS011;45708;51.848;107.620;2023-04-06T01:10:26;3.88;;;1.60;;
59828;SDS011;45708;51.848;107.620;2023-04-06T01:15:28;7.38;;;4.38;;
59828;SDS011;45708;51.848;107.620;2023-04-06T01:20:30;2.80;;;1.50;;
59828;SDS011;45708;51.848;107.620;2023-04-06T01:25:31;1.25;;;1.15;;
59828;SDS011;45708;51.848;107.620;2023-04-06T01:30:31;3.80;;;1.98;;
59828;SDS011;45708;51.848;107.620;2023-04-06T01:35:32;10.50;;;3.10;;
59828;SDS011;45708;51.848;107.620;2023-04-06T01:40:34;4.53;;;2.22;;
59828;SDS011;45708;51.848;107.620;2023-04-06T01:45:34;6.28;;;2.53;;
59828;SDS011;45708;51.848;107.620;2023-04-06T01:50:35;3.88;;;1.83;;
59828;SDS011;45708;51.848;107.620;2023-04-06T01:55:36;4.53;;;1.98;;
59828;SDS011;45708;51.848;107.620;2023-04-06T02:00:37;4.50;;;2.20;;
59828;SDS011;45708;51.848;107.620;2023-04-06T02:05:38;7.18;;;2.03;;
59828;SDS011;45708;51.848;107.620;2023-04-06T02:10:39;6.47;;;2.10;;
59828;SDS011;45708;51.848;107.620;2023-04-06T02:15:39;4.22;;;1.85;;
59828;SDS011;45708;51.848;107.620;2023-04-06T02:20:40;6.88;;;2.95;;
59828;SDS011;45708;51.848;107.620;2023-04-06T02:25:41;9.43;;;2.05;;
59828;SDS011;45708;51.848;107.620;2023-04-06T02:30:42;2.30;;;1.77;;
59828;SDS011;45708;51.848;107.620;2023-04-06T02:35:44;0.85;;;0.82;;
59828;SDS011;45708;51.848;107.620;2023-04-06T02:40:45;14.25;;;3.28;;
59828;SDS011;45708;51.848;107.620;2023-04-06T02:45:46;2.55;;;1.67;;
59828;SDS011;45708;51.848;107.620;2023-04-06T02:50:46;3.97;;;2.13;;
59828;SDS011;45708;51.848;107.620;2023-04-06T02:55:47;1.48;;;0.90;;
59828;SDS011;45708;51.848;107.620;2023-04-06T03:00:48;3.20;;;2.13;;
59828;SDS011;45708;51.848;107.620;2023-04-06T03:05:49;4.10;;;0.98;;
59828;SDS011;45708;51.848;107.620;2023-04-06T03:10:50;3.42;;;0.80;;
59828;SDS011;45708;51.848;107.620;2023-04-06T03:15:50;3.60;;;1.40;;
59828;SDS011;45708;51.848;107.620;2023-04-06T03:20:51;2.47;;;1.30;;
59828;SDS011;45708;51.848;107.620;2023-04-06T03:25:52;0.47;;;0.38;;
59828;SDS011;45708;51.848;107.620;2023-04-06T03:30:53;0.60;;;0.60;;
59828;SDS011;45708;51.848;107.620;2023-04-06T03:35:54;0.88;;;0.88;;
59828;SDS011;45708;51.848;107.620;2023-04-06T03:40:55;5.20;;;1.15;;
59828;SDS011;45708;51.848;107.620;2023-04-06T03:45:56;4.13;;;1.17;;
59828;SDS011;45708;51.848;107.620;2023-04-06T03:50:56;7.05;;;2.20;;
59828;SDS011;45708;51.848;107.620;2023-04-06T03:55:58;4.03;;;1.48;;
59828;SDS011;45708;51.848;107.620;2023-04-06T04:00:59;1.33;;;0.47;;
59828;SDS011;45708;51.848;107.620;2023-04-06T04:06:00;1.05;;;0.80;;
59828;SDS011;45708;51.848;107.620;2023-04-06T04:11:01;4.10;;;1.88;;
59828;SDS011;45708;51.848;107.620;2023-04-06T04:16:02;8.27;;;2.65;;
59828;SDS011;45708;51.848;107.620;2023-04-06T04:21:02;2.28;;;1.48;;
59828;SDS011;45708;51.848;107.620;2023-04-06T04:26:03;1.52;;;1.42;;
59828;SDS011;45708;51.848;107.620;2023-04-06T04:31:06;2.28;;;1.45;;
59828;SDS011;45708;51.848;107.620;2023-04-06T04:36:07;1.75;;;0.50;;
59828;SDS011;45708;51.848;107.620;2023-04-06T04:41:08;1.02;;;0.82;;
59828;SDS011;45708;51.848;107.620;2023-04-06T04:46:09;9.35;;;1.85;;
59828;SDS011;45708;51.848;107.620;2023-04-06T04:51:10;0.70;;;0.70;;
59828;SDS011;45708;51.848;107.620;2023-04-06T04:56:11;0.82;;;0.70;;
59828;SDS011;45708;51.848;107.620;2023-04-06T05:01:11;1.42;;;1.33;;
59828;SDS011;45708;51.848;107.620;2023-04-06T05:06:12;2.78;;;1.95;;
59828;SDS011;45708;51.848;107.620;2023-04-06T05:11:13;7.25;;;2.75;;
59828;SDS011;45708;51.848;107.620;2023-04-06T05:16:14;1.10;;;0.88;;
59828;SDS011;45708;51.848;107.620;2023-04-06T05:21:15;0.77;;;0.55;;
59828;SDS011;45708;51.848;107.620;2023-04-06T05:26:15;4.82;;;2.22;;
59828;SDS011;45708;51.848;107.620;2023-04-06T05:31:16;4.63;;;1.30;;
59828;SDS011;45708;51.848;107.620;2023-04-06T05:36:17;0.63;;;0.60;;
59828;SDS011;45708;51.848;107.620;2023-04-06T05:41:18;3.08;;;1.90;;
59828;SDS011;45708;51.848;107.620;2023-04-06T05:46:19;2.38;;;0.98;;
59828;SDS011;45708;51.848;107.620;2023-04-06T05:51:19;3.15;;;0.50;;
59828;SDS011;45708;51.848;107.620;2023-04-06T05:56:20;2.72;;;1.38;;
59828;SDS011;45708;51.848;107.620;2023-04-06T06:01:21;6.03;;;2.42;;
59828;SDS011;45708;51.848;107.620;2023-04-06T06:06:22;7.15;;;2.50;;
59828;SDS011;45708;51.848;107.620;2023-04-06T06:11:23;14.07;;;8.60;;
59828;SDS011;45708;51.848;107.620;2023-04-06T06:16:23;2.08;;;1.77;;
59828;SDS011;45708;51.848;107.620;2023-04-06T06:21:24;8.80;;;4.55;;
59828;SDS011;45708;51.848;107.620;2023-04-06T06:26:25;6.47;;;1.88;;
59828;SDS011;45708;51.848;107.620;2023-04-06T06:31:26;4.35;;;2.72;;
59828;SDS011;45708;51.848;107.620;2023-04-06T06:36:27;2.60;;;1.95;;
59828;SDS011;45708;51.848;107.620;2023-04-06T06:41:30;3.63;;;1.40;;
59828;SDS011;45708;51.848;107.620;2023-04-06T06:46:31;1.73;;;0.80;;
59828;SDS011;45708;51.848;107.620;2023-04-06T06:51:32;0.95;;;0.75;;
59828;SDS011;45708;51.848;107.620;2023-04-06T06:56:32;0.82;;;0.47;;
59828;SDS011;45708;51.848;107.620;2023-04-06T07:01:33;2.05;;;1.17;;
59828;SDS011;45708;51.848;107.620;2023-04-06T07:06:37;0.90;;;0.65;;
59828;SDS011;45708;51.848;107.620;2023-04-06T07:11:38;1.67;;;0.85;;
59828;SDS011;45708;51.848;107.620;2023-04-06T07:16:38;2.78;;;1.17;;
59828;SDS011;45708;51.848;107.620;2023-04-06T07:21:39;2.45;;;0.80;;
59828;SDS011;45708;51.848;107.620;2023-04-06T07:26:40;2.50;;;0.80;;
59828;SDS011;45708;51.848;107.620;2023-04-06T07:31:42;3.08;;;0.93;;
59828;SDS011;45708;51.848;107.620;2023-04-06T07:36:42;5.88;;;1.80;;
59828;SDS011;45708;51.848;107.620;2023-04-06T07:41:43;5.47;;;0.60;;
59828;SDS011;45708;51.848;107.620;2023-04-06T07:46:44;7.05;;;1.42;;
59828;SDS011;45708;51.848;107.620;2023-04-06T07:51:45;1.83;;;0.80;;
59828;SDS011;45708;51.848;107.620;2023-04-06T07:56:46;4.68;;;1.95;;
59828;SDS011;45708;51.848;107.620;2023-04-06T08:01:47;0.75;;;0.30;;
59828;SDS011;45708;51.848;107.620;2023-04-06T08:06:48;6.03;;;5.53;;
59828;SDS011;45708;51.848;107.620;2023-04-06T08:11:48;2.33;;;1.25;;
59828;SDS011;45708;51.848;107.620;2023-04-06T08:16:49;1.63;;;1.10;;
59828;SDS011;45708;51.848;107.620;2023-04-06T08:21:51;1.85;;;0.80;;
59828;SDS011;45708;51.848;107.620;2023-04-06T08:26:52;1.05;;;0.80;;
59828;SDS011;45708;51.848;107.620;2023-04-06T08:31:53;2.17;;;1.05;;
59828;SDS011;45708;51.848;107.620;2023-04-06T08:36:54;5.30;;;2.17;;
59828;SDS011;45708;51.848;107.620;2023-04-06T08:41:55;4.45;;;1.58;;
59828;SDS011;45708;51.848;107.620;2023-04-06T08:46:57;3.70;;;1.80;;
59828;SDS011;45708;51.848;107.620;2023-04-06T08:52:01;4.32;;;1.73;;
59828;SDS011;45708;51.848;107.620;2023-04-06T08:57:02;5.00;;;1.60;;
59828;SDS011;45708;51.848;107.620;2023-04-06T09:02:04;4.68;;;2.25;;
59828;SDS011;45708;51.848;107.620;2023-04-06T09:07:08;7.88;;;2.47;;
59828;SDS011;45708;51.848;107.620;2023-04-06T09:12:09;7.07;;;2.83;;
59828;SDS011;45708;51.848;107.620;2023-04-06T09:17:19;2.67;;;1.45;;
59828;SDS011;45708;51.848;107.620;2023-04-06T09:22:20;3.75;;;1.25;;
59828;SDS011;45708;51.848;107.620;2023-04-06T09:27:31;5.93;;;2.50;;
59828;SDS011;45708;51.848;107.620;2023-04-06T09:32:55;9.20;;;3.00;;
59828;SDS011;45708;51.848;107.620;2023-04-06T09:37:56;7.72;;;2.80;;
59828;SDS011;45708;51.848;107.620;2023-04-06T09:42:57;15.68;;;3.35;;
59828;SDS011;45708;51.848;107.620;2023-04-06T09:47:58;4.88;;;2.72;;
59828;SDS011;45708;51.848;107.620;2023-04-06T09:52:59;6.57;;;3.50;;
59828;SDS011;45708;51.848;107.620;2023-04-06T09:58:04;5.63;;;2.72;;
59828;SDS011;45708;51.848;107.620;2023-04-06T10:03:14;4.38;;;1.92;;
59828;SDS011;45708;51.848;107.620;2023-04-06T10:08:21;7.50;;;3.10;;
59828;SDS011;45708;51.848;107.620;2023-04-06T10:13:27;6.10;;;2.60;;
59828;SDS011;45708;51.848;107.620;2023-04-06T10:18:29;7.53;;;3.00;;
59828;SDS011;45708;51.848;107.620;2023-04-06T10:23:33;20.42;;;5.50;;
59828;SDS011;45708;51.848;107.620;2023-04-06T10:28:35;17.88;;;5.93;;
59828;SDS011;45708;51.848;107.620;2023-04-06T10:33:36;14.30;;;6.40;;
59828;SDS011;45708;51.848;107.620;2023-04-06T10:38:37;10.63;;;5.18;;
59828;SDS011;45708;51.848;107.620;2023-04-06T10:43:40;6.47;;;2.72;;
59828;SDS011;45708;51.848;107.620;2023-04-06T10:48:42;5.55;;;2.03;;
59828;SDS011;45708;51.848;107.620;2023-04-06T10:53:47;3.40;;;1.85;;
59828;SDS011;45708;51.848;107.620;2023-04-06T10:58:50;3.88;;;2.35;;
59828;SDS011;45708;51.848;107.620;2023-04-06T11:03:56;3.42;;;0.80;;
59828;SDS011;45708;51.848;107.620;2023-04-06T11:08:57;4.53;;;1.30;;
59828;SDS011;45708;51.848;107.620;2023-04-06T11:13:59;5.22;;;1.60;;
59828;SDS011;45708;51.848;107.620;2023-04-06T11:19:01;3.50;;;1.30;;
59828;SDS011;45708;51.848;107.620;2023-04-06T11:24:06;5.03;;;2.00;;
59828;SDS011;45708;51.848;107.620;2023-04-06T11:29:08;6.50;;;2.67;;
59828;SDS011;45708;51.848;107.620;2023-04-06T11:34:12;9.68;;;6.38;;
59828;SDS011;45708;51.848;107.620;2023-04-06T11:39:19;15.20;;;8.23;;
59828;SDS011;45708;51.848;107.620;2023-04-06T11:44:34;17.58;;;9.20;;
59828;SDS011;45708;51.848;107.620;2023-04-06T11:49:40;39.33;;;13.88;;
59828;SDS011;45708;51.848;107.620;2023-04-06T11:54:42;20.00;;;8.73;;
59828;SDS011;45708;51.848;107.620;2023-04-06T11:59:43;41.90;;;16.70;;
59828;SDS011;45708;51.848;107.620;2023-04-06T12:04:46;37.90;;;17.77;;
59828;SDS011;45708;51.848;107.620;2023-04-06T12:09:47;17.27;;;7.50;;
59828;SDS011;45708;51.848;107.620;2023-04-06T12:14:48;69.15;;;20.75;;
59828;SDS011;45708;51.848;107.620;2023-04-06T12:19:49;61.65;;;29.38;;
59828;SDS011;45708;51.848;107.620;2023-04-06T12:24:50;21.90;;;14.20;;
59828;SDS011;45708;51.848;107.620;2023-04-06T12:29:50;16.25;;;9.18;;
59828;SDS011;45708;51.848;107.620;2023-04-06T12:34:54;17.42;;;9.90;;
59828;SDS011;45708;51.848;107.620;2023-04-06T12:39:55;18.05;;;9.68;;
59828;SDS011;45708;51.848;107.620;2023-04-06T12:44:56;17.05;;;8.40;;
59828;SDS011;45708;51.848;107.620;2023-04-06T12:49:57;17.92;;;8.18;;
59828;SDS011;45708;51.848;107.620;2023-04-06T12:54:58;21.00;;;9.30;;
59828;SDS011;45708;51.848;107.620;2023-04-06T12:59:58;35.83;;;16.17;;
59828;SDS011;45708;51.848;107.620;2023-04-06T13:04:59;23.48;;;9.98;;
59828;SDS011;45708;51.848;107.620;2023-04-06T13:10:00;21.08;;;8.95;;
59828;SDS011;45708;51.848;107.620;2023-04-06T13:15:01;19.52;;;9.32;;
59828;SDS011;45708;51.848;107.620;2023-04-06T13:20:02;27.52;;;10.23;;
59828;SDS011;45708;51.848;107.620;2023-04-06T13:25:03;30.75;;;12.05;;
59828;SDS011;45708;51.848;107.620;2023-04-06T13:30:04;26.00;;;10.77;;
59828;SDS011;45708;51.848;107.620;2023-04-06T13:35:06;39.58;;;14.68;;
59828;SDS011;45708;51.848;107.620;2023-04-06T13:40:07;34.08;;;14.68;;
59828;SDS011;45708;51.848;107.620;2023-04-06T13:45:08;30.30;;;14.40;;
59828;SDS011;45708;51.848;107.620;2023-04-06T13:50:10;39.47;;;17.17;;
59828;SDS011;45708;51.848;107.620;2023-04-06T13:55:11;25.23;;;12.73;;
59828;SDS011;45708;51.848;107.620;2023-04-06T14:00:12;24.55;;;9.43;;
59828;SDS011;45708;51.848;107.620;2023-04-06T14:05:13;24.08;;;10.20;;
59828;SDS011;45708;51.848;107.620;2023-04-06T14:10:14;53.10;;;17.98;;
59828;SDS011;45708;51.848;107.620;2023-04-06T14:15:14;46.27;;;17.03;;
59828;SDS011;45708;51.848;107.620;2023-04-06T14:20:15;45.20;;;17.00;;
59828;SDS011;45708;51.848;107.620;2023-04-06T14:25:16;34.90;;;13.27;;
59828;SDS011;45708;51.848;107.620;2023-04-06T14:30:17;53.67;;;22.88;;
59828;SDS011;45708;51.848;107.620;2023-04-06T14:35:18;31.80;;;14.05;;
59828;SDS011;45708;51.848;107.620;2023-04-06T14:40:20;47.90;;;16.45;;
59828;SDS011;45708;51.848;107.620;2023-04-06T14:45:21;20.88;;;10.63;;
59828;SDS011;45708;51.848;107.620;2023-04-06T14:50:22;33.88;;;10.45;;
59828;SDS011;45708;51.848;107.620;2023-04-06T14:55:23;75.47;;;21.73;;
59828;SDS011;45708;51.848;107.620;2023-04-06T15:00:24;96.13;;;19.70;;
59828;SDS011;45708;51.848;107.620;2023-04-06T15:05:25;40.30;;;11.03;;
59828;SDS011;45708;51.848;107.620;2023-04-06T15:10:26;18.25;;;8.05;;
59828;SDS011;45708;51.848;107.620;2023-04-06T15:15:27;25.30;;;9.80;;
59828;SDS011;45708;51.848;107.620;2023-04-06T15:20:29;23.87;;;8.73;;
59828;SDS011;45708;51.848;107.620;2023-04-06T15:25:30;27.73;;;9.07;;
59828;SDS011;45708;51.848;107.620;2023-04-06T15:30:31;22.93;;;9.60;;
59828;SDS011;45708;51.848;107.620;2023-04-06T15:35:32;15.47;;;6.77;;
59828;SDS011;45708;51.848;107.620;2023-04-06T15:40:34;17.37;;;6.83;;
59828;SDS011;45708;51.848;107.620;2023-04-06T15:45:41;10.23;;;4.37;;
59828;SDS011;45708;51.848;107.620;2023-04-06T15:50:42;20.70;;;8.03;;
59828;SDS011;45708;51.848;107.620;2023-04-06T15:55:43;22.80;;;8.70;;
59828;SDS011;45708;51.848;107.620;2023-04-06T16:00:44;17.30;;;6.40;;
59828;SDS011;45708;51.848;107.620;2023-04-06T16:05:45;29.53;;;11.87;;
59828;SDS011;45708;51.848;107.620;2023-04-06T16:10:46;25.17;;;10.60;;
59828;SDS011;45708;51.848;107.620;2023-04-06T16:15:50;28.40;;;10.73;;
59828;SDS011;45708;51.848;107.620;2023-04-06T16:20:51;36.17;;;12.20;;
59828;SDS011;45708;51.848;107.620;2023-04-06T16:25:52;42.30;;;10.67;;
59828;SDS011;45708;51.848;107.620;2023-04-06T16:30:53;42.23;;;10.87;;
59828;SDS011;45708;51.848;107.620;2023-04-06T16:35:54;23.13;;;8.30;;
59828;SDS011;45708;51.848;107.620;2023-04-06T16:41:01;14.40;;;5.60;;
59828;SDS011;45708;51.848;107.620;2023-04-06T16:46:02;17.00;;;7.10;;
59828;SDS011;45708;51.848;107.620;2023-04-06T16:51:13;55.03;;;14.77;;
59828;SDS011;45708;51.848;107.620;2023-04-06T16:56:14;35.20;;;9.97;;
59828;SDS011;45708;51.848;107.620;2023-04-06T17:01:18;20.57;;;7.90;;
59828;SDS011;45708;51.848;107.620;2023-04-06T17:06:24;31.65;;;12.52;;
59828;SDS011;45708;51.848;107.620;2023-04-06T17:11:25;23.67;;;11.13;;
59828;SDS011;45708;51.848;107.620;2023-04-06T17:16:26;22.77;;;10.93;;
59828;SDS011;45708;51.848;107.620;2023-04-06T17:21:27;23.80;;;9.90;;
59828;SDS011;45708;51.848;107.620;2023-04-06T17:26:28;45.47;;;18.60;;
59828;SDS011;45708;51.848;107.620;2023-04-06T17:31:29;41.00;;;17.10;;
59828;SDS011;45708;51.848;107.620;2023-04-06T17:36:30;49.57;;;22.73;;
59828;SDS011;45708;51.848;107.620;2023-04-06T17:41:30;56.63;;;24.27;;
59828;SDS011;45708;51.848;107.620;2023-04-06T17:46:31;48.00;;;20.47;;
59828;SDS011;45708;51.848;107.620;2023-04-06T17:51:32;32.57;;;13.20;;
59828;SDS011;45708;51.848;107.620;2023-04-06T17:56:33;51.37;;;22.43;;
59828;SDS011;45708;51.848;107.620;2023-04-06T18:01:34;45.93;;;19.43;;
59828;SDS011;45708;51.848;107.620;2023-04-06T18:06:34;33.97;;;16.10;;
59828;SDS011;45708;51.848;107.620;2023-04-06T18:11:35;23.27;;;11.40;;
59828;SDS011;45708;51.848;107.620;2023-04-06T18:16:36;18.50;;;9.83;;
59828;SDS011;45708;51.848;107.620;2023-04-06T18:21:37;15.97;;;4.50;;
59828;SDS011;45708;51.848;107.620;2023-04-06T18:26:38;9.07;;;4.20;;
59828;SDS011;45708;51.848;107.620;2023-04-06T18:31:39;5.43;;;1.53;;
59828;SDS011;45708;51.848;107.620;2023-04-06T18:36:39;14.43;;;4.03;;
59828;SDS011;45708;51.848;107.620;2023-04-06T18:41:40;6.70;;;4.13;;
59828;SDS011;45708;51.848;107.620;2023-04-06T18:46:44;10.87;;;5.17;;
59828;SDS011;45708;51.848;107.620;2023-04-06T18:51:45;14.10;;;6.50;;
59828;SDS011;45708;51.848;107.620;2023-04-06T18:56:47;13.40;;;4.63;;
59828;SDS011;45708;51.848;107.620;2023-04-06T19:01:48;27.83;;;12.77;;
59828;SDS011;45708;51.848;107.620;2023-04-06T19:06:48;51.27;;;19.30;;
59828;SDS011;45708;51.848;107.620;2023-04-06T19:11:49;34.50;;;14.17;;
59828;SDS011;45708;51.848;107.620;2023-04-06T19:16:50;42.53;;;17.67;;
59828;SDS011;45708;51.848;107.620;2023-04-06T19:21:51;39.53;;;17.03;;
59828;SDS011;45708;51.848;107.620;2023-04-06T19:26:52;31.43;;;11.93;;
59828;SDS011;45708;51.848;107.620;2023-04-06T19:31:52;18.30;;;8.63;;
59828;SDS011;45708;51.848;107.620;2023-04-06T19:36:55;30.37;;;12.20;;
59828;SDS011;45708;51.848;107.620;2023-04-06T19:41:56;19.03;;;8.67;;
59828;SDS011;45708;51.848;107.620;2023-04-06T19:46:57;21.37;;;9.57;;
59828;SDS011;45708;51.848;107.620;2023-04-06T19:51:58;19.50;;;7.77;;
59828;SDS011;45708;51.848;107.620;2023-04-06T19:56:59;11.23;;;6.27;;
59828;SDS011;45708;51.848;107.620;2023-04-06T20:02:00;11.43;;;4.03;;
59828;SDS011;45708;51.848;107.620;2023-04-06T20:07:01;24.63;;;9.50;;
59828;SDS011;45708;51.848;107.620;2023-04-06T20:12:02;10.53;;;3.57;;
59828;SDS011;45708;51.848;107.620;2023-04-06T20:17:03;4.97;;;3.37;;
59828;SDS011;45708;51.848;107.620;2023-04-06T20:22:04;8.00;;;4.63;;
59828;SDS011;45708;51.848;107.620;2023-04-06T20:27:04;11.33;;;4.50;;
59828;SDS011;45708;51.848;107.620;2023-04-06T20:32:05;4.97;;;3.17;;
59828;SDS011;45708;51.848;107.620;2023-04-06T20:37:06;5.77;;;2.70;;
59828;SDS011;45708;51.848;107.620;2023-04-06T20:42:07;5.83;;;3.37;;
59828;SDS011;45708;51.848;107.620;2023-04-06T20:47:08;7.07;;;4.57;;
59828;SDS011;45708;51.848;107.620;2023-04-06T20:52:09;12.17;;;4.40;;
59828;SDS011;45708;51.848;107.620;2023-04-06T20:57:09;7.73;;;3.27;;
59828;SDS011;45708;51.848;107.620;2023-04-06T21:02:10;10.50;;;4.10;;
59828;SDS011;45708;51.848;107.620;2023-04-06T21:07:11;4.90;;;2.73;;
59828;SDS011;45708;51.848;107.620;2023-04-06T21:12:12;11.03;;;5.20;;
59828;SDS011;45708;51.848;107.620;2023-04-06T21:17:13;9.47;;;5.90;;
59828;SDS011;45708;51.848;107.620;2023-04-06T21:22:14;16.73;;;6.83;;
59828;SDS011;45708;51.848;107.620;2023-04-06T21:27:14;23.00;;;9.60;;
59828;SDS011;45708;51.848;107.620;2023-04-06T21:32:15;15.97;;;8.40;;
59828;SDS011;45708;51.848;107.620;2023-04-06T21:37:16;9.07;;;3.77;;
59828;SDS011;45708;51.848;107.620;2023-04-06T21:42:17;6.87;;;3.73;;
59828;SDS011;45708;51.848;107.620;2023-04-06T21:47:18;3.50;;;1.83;;
59828;SDS011;45708;51.848;107.620;2023-04-06T21:52:19;3.83;;;1.83;;
59828;SDS011;45708;51.848;107.620;2023-04-06T21:57:19;3.87;;;2.80;;
59828;SDS011;45708;51.848;107.620;2023-04-06T22:02:20;6.07;;;2.47;;
59828;SDS011;45708;51.848;107.620;2023-04-06T22:07:21;13.73;;;5.90;;
59828;SDS011;45708;51.848;107.620;2023-04-06T22:12:22;8.57;;;3.90;;
59828;SDS011;45708;51.848;107.620;2023-04-06T22:17:23;4.87;;;2.83;;
59828;SDS011;45708;51.848;107.620;2023-04-06T22:22:24;8.10;;;4.10;;
59828;SDS011;45708;51.848;107.620;2023-04-06T22:27:24;1.50;;;1.40;;
59828;SDS011;45708;51.848;107.620;2023-04-06T22:32:25;3.77;;;2.70;;
59828;SDS011;45708;51.848;107.620;2023-04-06T22:37:26;9.90;;;4.70;;
59828;SDS011;45708;51.848;107.620;2023-04-06T22:42:27;5.20;;;2.70;;
59828;SDS011;45708;51.848;107.620;2023-04-06T22:47:28;11.33;;;4.43;;
59828;SDS011;45708;51.848;107.620;2023-04-06T22:52:29;17.67;;;6.53;;
59828;SDS011;45708;51.848;107.620;2023-04-06T22:57:29;27.47;;;11.73;;
59828;SDS011;45708;51.848;107.620;2023-04-06T23:02:30;24.90;;;11.53;;
59828;SDS011;45708;51.848;107.620;2023-04-06T23:07:31;28.03;;;11.53;;
59828;SDS011;45708;51.848;107.620;2023-04-06T23:12:32;41.27;;;18.40;;
59828;SDS011;45708;51.848;107.620;2023-04-06T23:17:33;30.73;;;9.47;;
59828;SDS011;45708;51.848;107.620;2023-04-06T23:22:34;39.73;;;14.33;;
59828;SDS011;45708;51.848;107.620;2023-04-06T23:27:34;36.67;;;14.70;;
59828;SDS011;45708;51.848;107.620;2023-04-06T23:32:35;19.27;;;9.83;;
59828;SDS011;45708;51.848;107.620;2023-04-06T23:37:36;20.43;;;8.50;;
59828;SDS011;45708;51.848;107.620;2023-04-06T23:42:37;23.70;;;8.90;;
59828;SDS011;45708;51.848;107.620;2023-04-06T23:47:37;16.02;;;6.63;;
59828;SDS011;45708;51.848;107.620;2023-04-06T23:52:38;24.58;;;9.23;;
59828;SDS011;45708;51.848;107.620;2023-04-06T23:57:39;21.38;;;9.65;;
